createdAt,value
2019-02-05T00:01:49.643Z,98.00
2019-02-05T00:04:20.993Z,98.00
2019-02-05T00:06:51.771Z,98.10
2019-02-05T00:09:22.740Z,98.00
2019-02-05T00:11:53.542Z,98.10
2019-02-05T00:14:24.403Z,98.00
2019-02-05T00:16:55.423Z,98.10
2019-02-05T00:19:26.126Z,98.30
2019-02-05T00:21:57.261Z,98.20
2019-02-05T00:24:28.784Z,98.30
2019-02-05T00:27:00.073Z,98.30
2019-02-05T00:29:30.673Z,98.30
2019-02-05T00:32:01.291Z,98.40
2019-02-05T00:34:32.331Z,98.40
2019-02-05T00:37:03.078Z,98.20
2019-02-05T00:39:33.935Z,98.20
2019-02-05T00:42:04.649Z,98.50
2019-02-05T00:44:35.325Z,98.30
2019-02-05T00:47:06.047Z,98.40
2019-02-05T00:49:36.931Z,98.50
2019-02-05T00:52:07.833Z,98.70
2019-02-05T00:54:39.012Z,98.70
2019-02-05T00:57:09.954Z,98.80
2019-02-05T00:59:40.714Z,98.70
2019-02-05T01:02:11.833Z,98.70
2019-02-05T01:04:42.642Z,98.80
2019-02-05T01:07:13.908Z,98.90
2019-02-05T01:09:45.042Z,98.80
2019-02-05T01:12:15.476Z,98.80
2019-02-05T01:14:45.916Z,98.90
2019-02-05T01:17:16.237Z,98.80
2019-02-05T01:19:47.348Z,99.00
2019-02-05T01:22:18.514Z,99.00
2019-02-05T01:24:49.190Z,99.00
2019-02-05T01:27:20.398Z,98.90
2019-02-05T01:29:51.162Z,99.00
2019-02-05T01:32:22.270Z,99.10
2019-02-05T01:34:53.145Z,99.10
2019-02-05T01:37:23.894Z,99.20
2019-02-05T01:39:54.999Z,99.10
2019-02-05T01:42:25.774Z,99.10
2019-02-05T01:44:56.380Z,99.20
2019-02-05T01:47:27.344Z,99.30
2019-02-05T01:49:58.050Z,99.10
2019-02-05T01:52:28.818Z,99.20
2019-02-05T01:54:59.588Z,99.10
2019-02-05T01:57:29.943Z,99.10
2019-02-05T02:00:00.829Z,99.20
2019-02-05T02:02:31.787Z,99.20
2019-02-05T02:05:02.496Z,99.30
2019-02-05T02:07:33.205Z,99.40
2019-02-05T02:10:05.314Z,99.30
2019-02-05T02:12:36.224Z,99.30
2019-02-05T02:15:10.374Z,99.30
2019-02-05T02:17:41.287Z,99.30
2019-02-05T02:20:20.109Z,99.20
2019-02-05T02:22:51.278Z,99.30
2019-02-05T02:25:22.424Z,99.40
2019-02-05T02:27:53.181Z,99.40
2019-02-05T02:30:35.099Z,99.40
2019-02-05T02:33:06.119Z,99.60
2019-02-05T02:35:37.442Z,99.30
2019-02-05T02:38:08.413Z,99.20
2019-02-05T02:40:39.325Z,99.30
2019-02-05T02:43:10.123Z,99.40
2019-02-05T02:45:40.990Z,99.40
2019-02-05T02:48:12.350Z,99.40
2019-02-05T02:50:43.163Z,99.40
2019-02-05T02:53:14.049Z,99.50
2019-02-05T02:55:44.900Z,99.40
2019-02-05T02:58:15.498Z,99.40
2019-02-05T03:00:46.197Z,99.40
2019-02-05T03:03:17.356Z,99.30
2019-02-05T03:05:48.212Z,99.50
2019-02-05T03:08:18.929Z,99.50
2019-02-05T03:10:49.714Z,99.60
2019-02-05T03:13:20.665Z,99.60
2019-02-05T03:15:51.240Z,99.50
2019-02-05T03:18:22.036Z,99.40
2019-02-05T03:20:53.144Z,99.40
2019-02-05T03:23:24.095Z,99.50
2019-02-05T03:25:55.187Z,99.60
2019-02-05T03:28:26.052Z,99.80
2019-02-05T03:30:56.719Z,99.60
2019-02-05T03:33:27.923Z,99.60
2019-02-05T03:35:58.420Z,99.70
2019-02-05T03:38:29.465Z,99.60
2019-02-05T03:41:02.091Z,99.80
2019-02-05T03:43:32.796Z,99.70
2019-02-05T03:46:05.202Z,99.70
2019-02-05T03:48:37.125Z,99.50
2019-02-05T03:51:10.540Z,99.60
2019-02-05T03:54:02.834Z,99.60
2019-02-05T03:56:48.665Z,99.70
2019-02-05T03:59:44.955Z,99.80
2019-02-05T04:02:18.702Z,99.80
2019-02-05T04:05:04.033Z,99.90
2019-02-05T04:07:50.202Z,99.90
2019-02-05T04:10:29.668Z,99.80
2019-02-05T04:13:26.475Z,99.70
2019-02-05T04:16:02.881Z,99.90
2019-02-05T04:18:51.675Z,99.70
2019-02-05T04:21:31.582Z,99.70
2019-02-05T04:24:08.951Z,99.80
2019-02-05T04:26:57.878Z,99.80
2019-02-05T04:29:55.603Z,99.80
2019-02-05T04:32:31.784Z,99.80
2019-02-05T04:35:21.865Z,99.80
2019-02-05T04:38:04.506Z,99.80
2019-02-05T04:40:50.503Z,99.80
2019-02-05T04:43:40.402Z,99.80
2019-02-05T04:46:14.097Z,99.70
2019-02-05T04:48:59.596Z,99.70
2019-02-05T04:51:57.771Z,99.80
2019-02-05T04:54:46.264Z,99.70
2019-02-05T04:57:56.998Z,99.80
2019-02-05T05:00:46.297Z,99.80
2019-02-05T05:03:28.551Z,99.60
2019-02-05T05:06:17.268Z,99.70
2019-02-05T05:09:09.183Z,99.80
2019-02-05T05:11:41.166Z,99.70
2019-02-05T05:14:12.174Z,99.70
2019-02-05T05:16:43.810Z,99.70
2019-02-05T05:19:14.605Z,99.70
2019-02-05T05:21:45.270Z,99.70
2019-02-05T05:24:15.986Z,99.80
2019-02-05T05:26:46.672Z,99.80
2019-02-05T05:29:17.928Z,99.70
2019-02-05T05:31:49.584Z,99.80
2019-02-05T05:34:20.687Z,99.90
2019-02-05T05:36:50.174Z,99.90
2019-02-05T05:39:20.881Z,99.90
2019-02-05T05:41:51.893Z,99.90
2019-02-05T05:44:22.761Z,99.90
2019-02-05T05:46:53.559Z,99.90
2019-02-05T05:49:24.920Z,99.90
2019-02-05T05:51:55.811Z,99.80
2019-02-05T05:54:26.411Z,99.90
2019-02-05T05:56:57.374Z,99.90
2019-02-05T05:59:27.982Z,99.90
2019-02-05T06:01:58.755Z,99.90
2019-02-05T06:04:29.339Z,99.90
2019-02-05T06:07:00.166Z,99.90
2019-02-05T06:09:31.056Z,99.90
2019-02-05T06:12:02.092Z,99.90
2019-02-05T06:14:32.885Z,99.90
2019-02-05T06:17:03.761Z,99.90
2019-02-05T06:19:34.451Z,99.90
2019-02-05T06:22:05.259Z,99.80
2019-02-05T06:24:36.143Z,99.70
2019-02-05T06:27:07.012Z,99.70
2019-02-05T06:29:38.050Z,99.90
2019-02-05T06:32:08.885Z,99.90
2019-02-05T06:34:40.077Z,99.80
2019-02-05T06:37:10.772Z,99.90
2019-02-05T06:39:41.408Z,99.70
2019-02-05T06:42:12.201Z,99.60
2019-02-05T06:44:43.412Z,99.70
2019-02-05T06:47:14.236Z,99.70
2019-02-05T06:49:44.987Z,99.90
2019-02-05T06:52:15.793Z,99.80
2019-02-05T06:54:46.861Z,99.50
2019-02-05T06:57:17.517Z,99.40
2019-02-05T06:59:48.741Z,99.70
2019-02-05T07:02:19.288Z,99.50
2019-02-05T07:04:50.191Z,99.50
2019-02-05T07:07:21.302Z,99.60
2019-02-05T07:09:52.055Z,99.90
2019-02-05T07:12:22.843Z,99.60
2019-02-05T07:14:53.746Z,99.50
2019-02-05T07:17:25.061Z,99.50
2019-02-05T07:19:56.487Z,99.40
2019-02-05T07:22:27.666Z,99.30
2019-02-05T07:24:58.904Z,99.40
2019-02-05T07:27:30.904Z,99.30
2019-02-05T07:30:01.682Z,99.30
2019-02-05T07:32:32.778Z,99.30
2019-02-05T07:35:03.752Z,99.20
2019-02-05T07:37:34.590Z,99.40
2019-02-05T07:40:10.175Z,99.20
2019-02-05T07:42:44.639Z,99.10
2019-02-05T07:45:18.412Z,99.10
2019-02-05T07:47:49.455Z,99.20
2019-02-05T07:50:28.033Z,99.20
2019-02-05T07:52:58.986Z,99.20
2019-02-05T07:55:30.246Z,99.20
2019-02-05T07:58:00.955Z,99.20
2019-02-05T08:00:33.875Z,99.20
2019-02-05T08:03:04.836Z,99.30
2019-02-05T08:05:35.818Z,99.30
2019-02-05T08:08:07.519Z,99.10
2019-02-05T08:10:38.663Z,99.20
2019-02-05T08:13:09.915Z,99.10
2019-02-05T08:15:40.645Z,99.50
2019-02-05T08:18:11.402Z,99.50
2019-02-05T08:20:42.418Z,99.40
2019-02-05T08:23:13.207Z,99.30
2019-02-05T08:25:44.215Z,99.20
2019-02-05T08:28:15.076Z,99.30
2019-02-05T08:30:48.545Z,99.10
2019-02-05T08:33:19.215Z,99.10
2019-02-05T08:35:50.192Z,99.10
2019-02-05T08:38:21.036Z,99.10
2019-02-05T08:40:52.057Z,99.50
2019-02-05T08:43:22.796Z,99.30
2019-02-05T08:45:56.697Z,99.10
2019-02-05T08:48:26.097Z,99.50
2019-02-05T08:50:57.183Z,99.30
2019-02-05T08:53:28.041Z,99.30
2019-02-05T08:55:58.683Z,99.10
2019-02-05T08:58:31.224Z,99.10
2019-02-05T09:01:01.991Z,99.20
2019-02-05T09:03:32.834Z,99.10
2019-02-05T09:06:03.818Z,99.20
2019-02-05T09:08:35.159Z,99.10
2019-02-05T09:11:06.735Z,99.00
2019-02-05T09:13:37.450Z,99.20
2019-02-05T09:16:08.251Z,99.20
2019-02-05T09:18:39.062Z,99.20
2019-02-05T09:21:09.759Z,99.10
2019-02-05T09:23:40.752Z,99.00
2019-02-05T09:26:11.765Z,99.00
2019-02-05T09:28:42.831Z,99.00
2019-02-05T09:31:13.608Z,98.90
2019-02-05T09:33:44.951Z,98.90
2019-02-05T09:36:16.146Z,98.80
2019-02-05T09:38:46.844Z,98.70
2019-02-05T09:41:17.972Z,98.70
2019-02-05T09:43:48.815Z,98.80
2019-02-05T09:46:19.500Z,98.80
2019-02-05T09:48:50.581Z,98.70
2019-02-05T09:51:21.457Z,98.80
2019-02-05T09:53:52.148Z,98.60
2019-02-05T09:56:23.111Z,98.70
2019-02-05T09:58:56.055Z,98.70
2019-02-05T10:01:27.269Z,98.80
2019-02-05T10:03:57.897Z,98.60
2019-02-05T10:06:28.997Z,98.90
2019-02-05T10:08:59.561Z,98.70
2019-02-05T10:11:30.530Z,98.60
2019-02-05T10:14:02.096Z,98.60
2019-02-05T10:16:32.760Z,98.50
2019-02-05T10:19:04.065Z,98.60
2019-02-05T10:21:35.032Z,98.30
2019-02-05T10:24:05.822Z,98.40
2019-02-05T10:26:36.895Z,98.40
2019-02-05T10:29:07.329Z,98.50
2019-02-05T10:31:38.244Z,98.40
2019-02-05T10:34:08.902Z,98.60
2019-02-05T10:36:40.048Z,98.70
2019-02-05T10:39:11.383Z,98.60
2019-02-05T10:41:42.386Z,98.50
2019-02-05T10:44:13.178Z,98.30
2019-02-05T10:46:44.355Z,98.40
2019-02-05T10:49:15.763Z,98.60
2019-02-05T10:51:46.530Z,98.40
2019-02-05T10:54:17.634Z,98.40
2019-02-05T10:56:48.521Z,98.60
2019-02-05T10:59:19.514Z,98.40
2019-02-05T11:01:50.202Z,98.40
2019-02-05T11:04:21.229Z,98.40
2019-02-05T11:06:52.226Z,98.40
2019-02-05T11:09:23.163Z,98.50
2019-02-05T11:11:54.106Z,98.30
2019-02-05T11:14:26.115Z,98.50
2019-02-05T11:16:57.315Z,98.60
2019-02-05T11:19:27.946Z,98.30
2019-02-05T11:21:58.878Z,98.30
2019-02-05T11:24:29.572Z,98.40
2019-02-05T11:27:00.303Z,98.30
2019-02-05T11:29:31.003Z,98.50
2019-02-05T11:32:02.440Z,98.30
2019-02-05T11:34:33.387Z,98.70
2019-02-05T11:37:04.724Z,98.60
2019-02-05T11:39:35.760Z,98.30
2019-02-05T11:42:06.532Z,98.20
2019-02-05T11:44:37.140Z,98.30
2019-02-05T11:47:08.346Z,98.20
2019-02-05T11:49:39.142Z,98.30
2019-02-05T11:52:10.054Z,98.40
2019-02-05T11:54:41.087Z,98.20
2019-02-05T11:57:12.064Z,98.10
2019-02-05T11:59:42.756Z,98.00
2019-02-05T12:02:13.810Z,98.00
2019-02-05T12:04:44.939Z,98.30
2019-02-05T12:07:15.725Z,98.40
2019-02-05T12:09:47.019Z,98.00
2019-02-05T12:12:17.684Z,98.40
2019-02-05T12:14:50.451Z,98.30
2019-02-05T12:17:20.770Z,98.50
2019-02-05T12:19:51.948Z,98.20
2019-02-05T12:22:22.636Z,98.20
2019-02-05T12:24:53.940Z,98.30
2019-02-05T12:27:24.896Z,98.30
2019-02-05T12:29:56.783Z,98.30
2019-02-05T12:32:27.209Z,98.20
2019-02-05T12:34:57.937Z,98.30
2019-02-05T12:37:28.506Z,98.40
2019-02-05T12:39:59.198Z,98.30
2019-02-05T12:42:29.878Z,98.10
2019-02-05T12:45:00.870Z,98.10
2019-02-05T12:47:31.749Z,98.10
2019-02-05T12:50:02.922Z,98.20
2019-02-05T12:52:33.641Z,98.30
2019-02-05T12:55:15.130Z,98.40
2019-02-05T12:57:38.132Z,98.30
2019-02-05T13:00:14.741Z,98.20
2019-02-05T13:02:45.770Z,98.50
2019-02-05T13:05:18.503Z,98.40
2019-02-05T13:07:49.334Z,98.70
2019-02-05T13:10:29.619Z,98.40
2019-02-05T13:13:00.276Z,98.60
2019-02-05T13:15:31.331Z,98.40
2019-02-05T13:18:02.226Z,98.40
2019-02-05T13:20:33.121Z,98.40
2019-02-05T13:23:05.314Z,98.50
2019-02-05T13:25:36.120Z,98.40
2019-02-05T13:28:09.174Z,98.60
2019-02-05T13:30:40.257Z,98.40
2019-02-05T13:33:11.993Z,98.60
2019-02-05T13:35:42.692Z,98.50
2019-02-05T13:38:13.486Z,98.50
2019-02-05T13:40:44.457Z,98.30
2019-02-05T13:43:15.229Z,98.40
2019-02-05T13:45:46.560Z,98.40
2019-02-05T13:48:17.687Z,98.70
2019-02-05T13:50:48.584Z,98.30
2019-02-05T13:53:19.305Z,98.30
2019-02-05T13:55:50.025Z,98.10
2019-02-05T13:58:20.808Z,98.20
2019-02-05T14:00:53.135Z,98.20
2019-02-05T14:03:23.909Z,98.10
2019-02-05T14:05:54.867Z,98.40
2019-02-05T14:08:25.829Z,98.30
2019-02-05T14:10:56.778Z,98.20
2019-02-05T14:13:27.879Z,98.20
2019-02-05T14:15:58.832Z,98.20
2019-02-05T14:18:29.699Z,98.30
2019-02-05T14:21:00.706Z,98.50
2019-02-05T14:23:31.623Z,98.20
2019-02-05T14:26:02.786Z,98.40
2019-02-05T14:28:33.833Z,98.30
2019-02-05T14:31:04.911Z,98.30
2019-02-05T14:33:35.787Z,98.40
2019-02-05T14:36:06.846Z,98.20
2019-02-05T14:38:37.521Z,98.30
2019-02-05T14:41:08.711Z,98.30
2019-02-05T14:43:39.564Z,98.30
2019-02-05T14:46:13.045Z,98.10
2019-02-05T14:48:42.925Z,98.40
2019-02-05T14:51:13.608Z,98.40
2019-02-05T14:53:44.606Z,98.30
2019-02-05T14:56:15.319Z,98.30
2019-02-05T14:58:46.102Z,98.40
2019-02-05T15:01:16.888Z,98.30
2019-02-05T15:03:47.596Z,98.30
2019-02-05T15:06:19.583Z,98.20
2019-02-05T15:08:50.426Z,98.30
2019-02-05T15:11:21.168Z,98.10
2019-02-05T15:13:51.867Z,98.20
2019-02-05T15:16:22.611Z,98.20
2019-02-05T15:18:53.357Z,98.00
2019-02-05T15:21:24.398Z,98.30
2019-02-05T15:23:55.129Z,98.00
2019-02-05T15:26:26.225Z,98.00
2019-02-05T15:28:56.752Z,98.00
2019-02-05T15:31:27.490Z,98.00
2019-02-05T15:34:00.134Z,97.90
2019-02-05T15:36:31.722Z,98.00
2019-02-05T15:39:02.670Z,97.90
2019-02-05T15:41:33.397Z,98.00
2019-02-05T15:44:04.167Z,98.20
2019-02-05T15:46:35.321Z,98.20
2019-02-05T15:49:06.102Z,98.00
2019-02-05T15:51:36.681Z,98.10
2019-02-05T15:54:07.517Z,98.20
2019-02-05T15:56:38.260Z,98.10
2019-02-05T15:59:09.252Z,98.20
2019-02-05T16:01:39.829Z,98.20
2019-02-05T16:04:10.314Z,98.20
2019-02-05T16:06:41.239Z,98.10
2019-02-05T16:09:13.044Z,98.20
2019-02-05T16:11:43.609Z,98.20
2019-02-05T16:14:14.198Z,98.20
2019-02-05T16:16:44.956Z,98.20
2019-02-05T16:19:15.930Z,98.20
2019-02-05T16:21:46.669Z,98.30
2019-02-05T16:24:17.705Z,98.20
2019-02-05T16:26:48.588Z,98.40
2019-02-05T16:29:19.470Z,98.40
2019-02-05T16:31:50.373Z,98.30
2019-02-05T16:34:21.063Z,98.20
2019-02-05T16:36:52.107Z,98.40
2019-02-05T16:39:24.380Z,98.40
2019-02-05T16:41:55.403Z,98.40
2019-02-05T16:44:26.294Z,98.40
2019-02-05T16:46:57.123Z,98.40
2019-02-05T16:49:27.866Z,98.40
2019-02-05T16:51:58.805Z,98.50
2019-02-05T16:54:29.681Z,98.40
2019-02-05T16:57:01.571Z,98.40
2019-02-05T16:59:32.595Z,98.30
2019-02-05T17:02:03.490Z,98.30
2019-02-05T17:04:34.314Z,98.40
2019-02-05T17:07:05.467Z,98.30
2019-02-05T17:09:36.297Z,98.60
2019-02-05T17:12:07.070Z,98.20
2019-02-05T17:14:37.910Z,98.30
2019-02-05T17:17:08.647Z,98.30
2019-02-05T17:19:39.923Z,98.30
2019-02-05T17:22:11.034Z,98.40
2019-02-05T17:24:41.912Z,98.40
2019-02-05T17:27:12.415Z,98.40
2019-02-05T17:29:43.195Z,98.50
2019-02-05T17:32:14.141Z,98.50
2019-02-05T17:34:45.033Z,98.50
2019-02-05T17:37:15.749Z,98.60
2019-02-05T17:39:46.547Z,98.60
2019-02-05T17:42:17.723Z,98.90
2019-02-05T17:44:48.613Z,98.60
2019-02-05T17:47:19.712Z,98.60
2019-02-05T17:49:50.515Z,98.60
2019-02-05T17:52:21.471Z,98.50
2019-02-05T17:54:52.056Z,98.50
2019-02-05T17:57:22.710Z,98.40
2019-02-05T17:59:53.897Z,98.50
2019-02-05T18:02:25.090Z,98.50
2019-02-05T18:04:56.235Z,98.40
2019-02-05T18:07:27.150Z,98.40
2019-02-05T18:09:58.042Z,98.40
2019-02-05T18:12:28.844Z,98.40
2019-02-05T18:14:59.570Z,98.50
2019-02-05T18:17:30.452Z,98.50
2019-02-05T18:20:01.452Z,98.40
2019-02-05T18:22:32.240Z,98.50
2019-02-05T18:25:03.389Z,98.40
2019-02-05T18:27:34.224Z,98.30
2019-02-05T18:30:14.264Z,98.30
2019-02-05T18:32:44.953Z,98.30
2019-02-05T18:35:16.049Z,98.30
2019-02-05T18:37:46.928Z,98.30
2019-02-05T18:40:20.225Z,98.30
2019-02-05T18:42:51.137Z,98.30
2019-02-05T18:45:22.036Z,98.30
2019-02-05T18:47:52.979Z,98.30
2019-02-05T18:50:28.274Z,98.30
2019-02-05T18:52:59.342Z,98.20
2019-02-05T18:55:36.464Z,98.30
2019-02-05T18:58:09.783Z,98.50
2019-02-05T19:00:42.859Z,98.30
2019-02-05T19:03:15.938Z,98.40
2019-02-05T19:05:46.027Z,98.30
2019-02-05T19:08:16.996Z,98.30
2019-02-05T19:10:47.914Z,98.30
2019-02-05T19:13:20.094Z,98.30
2019-02-05T19:15:51.220Z,98.30
2019-02-05T19:18:21.936Z,98.30
2019-02-05T19:20:52.605Z,98.30
2019-02-05T19:23:23.626Z,98.30
2019-02-05T19:25:58.927Z,98.20
2019-02-05T19:28:31.206Z,98.30
2019-02-05T19:31:03.878Z,98.30
2019-02-05T19:33:34.967Z,98.30
2019-02-05T19:36:06.005Z,98.20
2019-02-05T19:38:36.795Z,98.30
2019-02-05T19:41:07.847Z,98.60
2019-02-05T19:43:38.723Z,98.30
2019-02-05T19:46:19.952Z,98.30
2019-02-05T19:48:52.646Z,98.30
2019-02-05T19:51:23.663Z,98.30
2019-02-05T19:53:54.753Z,98.40
2019-02-05T19:56:25.649Z,98.30
2019-02-05T19:58:56.333Z,98.30
2019-02-05T20:01:27.007Z,98.40
2019-02-05T20:03:57.481Z,98.30
2019-02-05T20:06:28.385Z,98.40
2019-02-05T20:08:59.486Z,98.30
2019-02-05T20:11:30.493Z,98.30
2019-02-05T20:14:01.241Z,98.40
2019-02-05T20:16:32.121Z,98.40
2019-02-05T20:19:03.111Z,98.40
2019-02-05T20:21:33.933Z,98.30
2019-02-05T20:24:05.583Z,98.30
2019-02-05T20:26:36.535Z,98.40
2019-02-05T20:29:07.488Z,98.40
2019-02-05T20:31:38.259Z,98.40
2019-02-05T20:34:09.238Z,98.40
2019-02-05T20:36:40.043Z,98.40
2019-02-05T20:39:13.044Z,98.30
2019-02-05T20:41:43.785Z,98.40
2019-02-05T20:44:14.508Z,98.30
2019-02-05T20:46:45.342Z,98.30
2019-02-05T20:49:15.969Z,98.40
2019-02-05T20:51:47.455Z,98.40
2019-02-05T20:54:18.879Z,98.40
2019-02-05T20:56:50.184Z,98.40
2019-02-05T20:59:20.850Z,98.50
2019-02-05T21:01:51.899Z,98.40
2019-02-05T21:04:22.665Z,98.30
2019-02-05T21:06:53.812Z,98.30
2019-02-05T21:09:24.622Z,98.40
2019-02-05T21:11:55.591Z,98.30
2019-02-05T21:14:26.611Z,98.40
2019-02-05T21:16:57.424Z,98.30
2019-02-05T21:19:27.997Z,98.40
2019-02-05T21:21:58.763Z,98.40
2019-02-05T21:24:29.279Z,98.30
2019-02-05T21:27:00.145Z,98.30
2019-02-05T21:29:31.036Z,98.30
2019-02-05T21:32:01.918Z,98.30
2019-02-05T21:34:32.928Z,98.40
2019-02-05T21:37:04.018Z,98.40
2019-02-05T21:39:34.781Z,98.30
2019-02-05T21:42:05.912Z,98.30
2019-02-05T21:44:36.879Z,98.30
2019-02-05T21:47:07.666Z,98.30
2019-02-05T21:49:38.428Z,98.30
2019-02-05T21:52:09.148Z,98.40
2019-02-05T21:54:39.959Z,98.40
2019-02-05T21:57:14.115Z,98.40
2019-02-05T21:59:45.209Z,98.50
2019-02-05T22:02:16.287Z,98.40
2019-02-05T22:04:47.030Z,98.50
2019-02-05T22:07:17.892Z,98.50
2019-02-05T22:09:49.241Z,98.50
2019-02-05T22:12:20.300Z,98.50
2019-02-05T22:14:51.923Z,98.60
2019-02-05T22:17:22.981Z,98.70
2019-02-05T22:19:53.897Z,98.60
2019-02-05T22:22:24.863Z,98.70
2019-02-05T22:24:55.559Z,98.60
2019-02-05T22:27:26.347Z,98.70
2019-02-05T22:29:57.126Z,99.00
2019-02-05T22:32:28.214Z,98.70
2019-02-05T22:34:58.876Z,98.80
2019-02-05T22:37:29.669Z,98.90
2019-02-05T22:40:00.537Z,98.80
2019-02-05T22:42:31.642Z,98.80
2019-02-05T22:45:02.825Z,98.70
2019-02-05T22:47:33.539Z,98.80
2019-02-05T22:50:05.414Z,98.90
2019-02-05T22:52:36.663Z,98.80
2019-02-05T22:55:08.339Z,98.90
2019-02-05T22:57:39.048Z,99.00
2019-02-05T23:00:15.377Z,99.20
2019-02-05T23:02:46.283Z,98.90
2019-02-05T23:05:22.262Z,98.80
2019-02-05T23:07:53.126Z,98.90
2019-02-05T23:10:26.643Z,98.90
2019-02-05T23:12:57.717Z,98.90
2019-02-05T23:15:29.041Z,98.90
2019-02-05T23:17:59.905Z,98.90
2019-02-05T23:20:31.223Z,98.90
2019-02-05T23:23:01.950Z,98.80
2019-02-05T23:25:32.633Z,98.90
2019-02-05T23:28:03.766Z,98.90
2019-02-05T23:30:34.528Z,98.80
2019-02-05T23:33:05.644Z,98.80
2019-02-05T23:35:36.454Z,98.90
2019-02-05T23:38:10.797Z,98.90
2019-02-05T23:40:41.691Z,98.90
2019-02-05T23:43:12.880Z,98.90
2019-02-05T23:45:43.782Z,98.90
2019-02-05T23:48:14.680Z,98.80
2019-02-05T23:50:45.702Z,98.90
2019-02-05T23:53:16.549Z,98.90
2019-02-05T23:55:47.333Z,98.80
2019-02-05T23:58:18.516Z,98.80
